createdAt,value
2022-10-23T00:02:05.735Z,3.13
2022-10-23T00:04:34.633Z,2.27
2022-10-23T00:07:02.368Z,2.72
2022-10-23T00:09:30.019Z,2.47
2022-10-23T00:11:57.749Z,2.10
2022-10-23T00:14:25.516Z,2.28
2022-10-23T00:16:53.261Z,2.20
2022-10-23T00:19:20.920Z,1.90
2022-10-23T00:21:48.643Z,2.65
2022-10-23T00:24:17.533Z,2.20
2022-10-23T00:26:45.295Z,2.15
2022-10-23T00:29:13.015Z,2.27
2022-10-23T00:31:40.695Z,3.40
2022-10-23T00:34:08.936Z,2.97
2022-10-23T00:36:36.910Z,3.07
2022-10-23T00:39:05.045Z,3.15
2022-10-23T00:41:32.929Z,2.92
2022-10-23T00:44:00.743Z,3.30
2022-10-23T00:46:28.533Z,3.58
2022-10-23T00:48:56.336Z,2.95
2022-10-23T00:51:24.098Z,2.10
2022-10-23T00:54:01.162Z,2.13
2022-10-23T00:56:40.118Z,2.35
2022-10-23T00:59:07.754Z,2.10
2022-10-23T01:01:35.549Z,2.37
2022-10-23T01:04:03.387Z,2.03
2022-10-23T01:06:34.296Z,2.15
2022-10-23T01:09:34.526Z,2.70
2022-10-23T01:12:15.374Z,2.30
2022-10-23T01:14:43.175Z,2.33
2022-10-23T01:17:13.351Z,2.63
2022-10-23T01:19:52.706Z,2.27
2022-10-23T01:22:39.298Z,2.40
2022-10-23T01:25:25.497Z,2.53
2022-10-23T01:27:54.033Z,2.23
2022-10-23T01:30:21.809Z,2.50
2022-10-23T01:32:50.397Z,2.78
2022-10-23T01:35:20.538Z,3.33
2022-10-23T01:37:51.294Z,3.20
2022-10-23T01:40:36.626Z,2.55
2022-10-23T01:43:08.159Z,2.55
2022-10-23T01:45:40.213Z,2.10
2022-10-23T01:48:08.051Z,3.83
2022-10-23T01:50:35.749Z,2.63
2022-10-23T01:53:04.486Z,4.50
2022-10-23T01:55:32.722Z,3.17
2022-10-23T01:58:00.847Z,3.63
2022-10-23T02:00:28.518Z,4.83
2022-10-23T02:02:56.364Z,4.25
2022-10-23T02:05:27.474Z,3.40
2022-10-23T02:07:55.314Z,5.47
2022-10-23T02:10:23.011Z,3.83
2022-10-23T02:13:09.499Z,8.10
2022-10-23T02:15:40.692Z,7.07
2022-10-23T02:18:09.916Z,7.13
2022-10-23T02:20:53.975Z,6.28
2022-10-23T02:23:22.739Z,6.88
2022-10-23T02:25:54.922Z,5.93
2022-10-23T02:28:24.999Z,5.22
2022-10-23T02:30:52.649Z,5.75
2022-10-23T02:33:20.417Z,5.57
2022-10-23T02:35:48.154Z,7.37
2022-10-23T02:38:38.100Z,4.25
2022-10-23T02:41:20.888Z,7.53
2022-10-23T02:43:51.983Z,6.40
2022-10-23T02:46:19.627Z,8.60
2022-10-23T02:48:53.644Z,7.95
2022-10-23T02:51:53.792Z,6.67
2022-10-23T02:54:24.683Z,7.07
2022-10-23T02:56:54.663Z,3.88
2022-10-23T02:59:28.486Z,4.20
2022-10-23T03:01:57.196Z,4.20
2022-10-23T03:04:25.149Z,4.45
2022-10-23T03:06:52.811Z,4.13
2022-10-23T03:09:20.672Z,3.83
2022-10-23T03:11:48.405Z,3.75
2022-10-23T03:14:16.052Z,2.53
2022-10-23T03:16:43.796Z,2.93
2022-10-23T03:21:45.194Z,3.42
2022-10-23T03:24:12.856Z,4.50
2022-10-23T03:26:40.582Z,5.10
2022-10-23T03:29:08.262Z,4.72
2022-10-23T03:31:36.130Z,5.15
2022-10-23T03:34:06.268Z,4.37
2022-10-23T03:36:35.851Z,4.03
2022-10-23T03:39:04.369Z,4.85
2022-10-23T03:41:32.133Z,3.77
2022-10-23T03:43:59.974Z,3.78
2022-10-23T03:46:27.679Z,4.38
2022-10-23T03:48:59.154Z,4.28
2022-10-23T03:51:27.030Z,4.87
2022-10-23T03:53:54.794Z,4.47
2022-10-23T03:56:22.545Z,4.28
2022-10-23T03:58:50.323Z,5.17
2022-10-23T04:01:18.132Z,4.10
2022-10-23T04:03:45.872Z,4.47
2022-10-23T04:06:13.688Z,4.60
2022-10-23T04:08:44.851Z,4.10
2022-10-23T04:11:12.560Z,4.20
2022-10-23T04:13:40.239Z,3.70
2022-10-23T04:16:08.155Z,4.03
2022-10-23T04:18:35.871Z,4.75
2022-10-23T04:21:03.508Z,4.15
2022-10-23T04:23:31.228Z,4.50
2022-10-23T04:25:59.027Z,4.13
2022-10-23T04:28:26.812Z,4.53
2022-10-23T04:30:54.534Z,6.93
2022-10-23T04:33:22.318Z,6.90
2022-10-23T04:35:49.962Z,6.15
2022-10-23T04:38:17.666Z,5.43
2022-10-23T04:40:45.347Z,5.50
2022-10-23T04:43:13.129Z,3.88
2022-10-23T04:45:40.896Z,5.07
2022-10-23T04:48:08.589Z,4.43
2022-10-23T04:50:36.332Z,4.47
2022-10-23T04:53:03.991Z,4.20
2022-10-23T04:55:31.747Z,4.07
2022-10-23T04:57:59.393Z,3.97
2022-10-23T05:00:27.183Z,4.90
2022-10-23T05:02:54.974Z,4.90
2022-10-23T05:05:22.734Z,4.37
2022-10-23T05:07:50.507Z,4.90
2022-10-23T05:10:18.146Z,4.65
2022-10-23T05:12:45.873Z,5.67
2022-10-23T05:15:13.532Z,5.10
2022-10-23T05:17:42.502Z,4.32
2022-10-23T05:20:12.838Z,5.67
2022-10-23T05:22:40.898Z,4.93
2022-10-23T05:25:08.828Z,5.70
2022-10-23T05:27:36.556Z,5.10
2022-10-23T05:30:04.799Z,5.73
2022-10-23T05:32:32.622Z,5.13
2022-10-23T05:35:00.453Z,5.35
2022-10-23T05:37:28.234Z,4.97
2022-10-23T05:39:55.954Z,5.45
2022-10-23T05:42:23.589Z,5.45
2022-10-23T05:44:52.326Z,5.40
2022-10-23T05:47:20.024Z,5.30
2022-10-23T05:49:47.802Z,4.80
2022-10-23T05:52:15.510Z,6.00
2022-10-23T05:54:43.236Z,6.07
2022-10-23T05:57:10.912Z,4.75
2022-10-23T05:59:38.626Z,5.75
2022-10-23T06:02:06.406Z,5.67
2022-10-23T06:04:35.359Z,6.10
2022-10-23T06:07:03.413Z,6.00
2022-10-23T06:09:31.094Z,6.27
2022-10-23T06:11:58.768Z,5.78
2022-10-23T06:14:26.476Z,5.97
2022-10-23T06:16:54.196Z,5.70
2022-10-23T06:19:21.949Z,6.57
2022-10-23T06:21:49.665Z,6.30
2022-10-23T06:24:17.342Z,5.38
2022-10-23T06:26:45.744Z,5.93
2022-10-23T06:29:13.393Z,5.35
2022-10-23T06:31:41.129Z,4.30
2022-10-23T06:34:09.935Z,6.03
2022-10-23T06:36:38.270Z,5.15
2022-10-23T06:39:06.172Z,5.20
2022-10-23T06:41:33.956Z,4.82
2022-10-23T06:44:01.978Z,4.67
2022-10-23T06:46:32.991Z,5.55
2022-10-23T06:49:00.771Z,5.78
2022-10-23T06:51:29.881Z,5.87
2022-10-23T06:53:57.679Z,5.35
2022-10-23T06:56:29.256Z,5.30
2022-10-23T06:58:57.065Z,4.40
2022-10-23T07:01:24.882Z,5.28
2022-10-23T07:03:52.829Z,5.47
2022-10-23T07:06:20.482Z,4.82
2022-10-23T07:08:48.197Z,5.93
2022-10-23T07:11:15.841Z,5.70
2022-10-23T07:13:44.654Z,5.40
2022-10-23T07:16:19.739Z,6.23
2022-10-23T07:18:47.705Z,5.40
2022-10-23T07:21:15.497Z,5.70
2022-10-23T07:23:43.209Z,6.17
2022-10-23T07:26:11.931Z,5.90
2022-10-23T07:28:41.489Z,5.93
2022-10-23T07:31:09.620Z,5.65
2022-10-23T07:33:37.356Z,6.43
2022-10-23T07:36:06.028Z,6.72
2022-10-23T07:38:33.705Z,5.97
2022-10-23T07:41:01.526Z,6.03
2022-10-23T07:43:29.448Z,6.32
2022-10-23T07:45:57.273Z,6.38
2022-10-23T07:48:25.005Z,5.90
2022-10-23T07:50:52.738Z,4.80
2022-10-23T07:53:23.639Z,5.70
2022-10-23T07:55:58.060Z,5.97
2022-10-23T07:58:25.867Z,5.10
2022-10-23T08:00:58.780Z,4.97
2022-10-23T08:03:26.991Z,4.57
2022-10-23T08:05:55.014Z,5.40
2022-10-23T08:08:25.762Z,6.32
2022-10-23T08:10:54.026Z,4.00
2022-10-23T08:13:21.793Z,4.10
2022-10-23T08:15:51.791Z,5.28
2022-10-23T08:18:19.536Z,5.22
2022-10-23T08:20:47.716Z,3.85
2022-10-23T08:23:17.084Z,5.13
2022-10-23T08:25:44.811Z,3.88
2022-10-23T08:28:12.582Z,5.18
2022-10-23T08:30:40.305Z,3.40
2022-10-23T08:33:08.170Z,5.65
2022-10-23T08:35:38.905Z,5.20
2022-10-23T08:38:06.687Z,5.93
2022-10-23T08:40:34.441Z,5.43
2022-10-23T08:43:22.342Z,5.18
2022-10-23T08:45:51.191Z,5.53
2022-10-23T08:48:27.469Z,3.83
2022-10-23T08:51:02.312Z,5.55
2022-10-23T08:53:44.333Z,4.63
2022-10-23T08:56:23.978Z,5.63
2022-10-23T08:58:53.843Z,4.60
2022-10-23T09:01:30.104Z,5.30
2022-10-23T09:03:57.958Z,5.27
2022-10-23T09:06:31.565Z,2.95
2022-10-23T09:09:05.059Z,4.50
2022-10-23T09:11:40.756Z,4.22
2022-10-23T09:14:27.860Z,4.10
2022-10-23T09:16:55.875Z,4.35
2022-10-23T09:19:27.474Z,4.60
2022-10-23T09:21:55.460Z,5.03
2022-10-23T09:24:23.749Z,5.57
2022-10-23T09:26:52.062Z,3.70
2022-10-23T09:29:26.950Z,3.78
2022-10-23T09:31:59.427Z,4.63
2022-10-23T09:34:28.023Z,3.33
2022-10-23T09:36:56.920Z,2.60
2022-10-23T09:39:34.462Z,4.30
2022-10-23T09:42:05.257Z,3.60
2022-10-23T09:44:33.742Z,3.33
2022-10-23T09:47:07.506Z,4.40
2022-10-23T09:49:35.303Z,4.18
2022-10-23T09:52:06.814Z,3.63
2022-10-23T09:54:35.129Z,3.77
2022-10-23T09:57:21.523Z,3.53
2022-10-23T09:59:55.876Z,3.50
2022-10-23T10:02:33.315Z,3.45
2022-10-23T10:05:01.115Z,3.07
2022-10-23T10:07:32.214Z,2.67
2022-10-23T10:10:02.502Z,4.07
2022-10-23T10:12:45.899Z,2.40
2022-10-23T10:15:13.750Z,2.40
2022-10-23T10:17:56.558Z,2.85
2022-10-23T10:20:42.670Z,2.55
2022-10-23T10:23:25.805Z,3.42
2022-10-23T10:25:57.836Z,2.17
2022-10-23T10:28:32.790Z,2.65
2022-10-23T10:31:19.366Z,2.97
2022-10-23T10:33:47.048Z,3.33
2022-10-23T10:36:14.751Z,3.25
2022-10-23T10:38:44.535Z,2.30
2022-10-23T10:41:16.152Z,3.35
2022-10-23T10:43:46.691Z,2.78
2022-10-23T10:46:17.604Z,3.23
2022-10-23T10:48:48.130Z,2.60
2022-10-23T10:51:19.467Z,2.42
2022-10-23T10:53:56.284Z,2.72
2022-10-23T10:56:24.206Z,2.40
2022-10-23T10:58:54.014Z,2.78
2022-10-23T11:01:45.099Z,3.05
2022-10-23T11:04:14.999Z,3.23
2022-10-23T11:06:42.723Z,3.25
2022-10-23T11:09:20.673Z,3.55
2022-10-23T11:11:48.881Z,2.80
2022-10-23T11:14:20.974Z,3.33
2022-10-23T11:16:49.408Z,2.10
2022-10-23T11:19:30.691Z,2.83
2022-10-23T11:21:58.316Z,2.63
2022-10-23T11:24:45.304Z,2.67
2022-10-23T11:27:21.569Z,3.30
2022-10-23T11:30:10.337Z,3.50
2022-10-23T11:32:43.866Z,2.55
2022-10-23T11:35:26.713Z,3.05
2022-10-23T11:37:58.565Z,2.63
2022-10-23T11:40:26.213Z,3.10
2022-10-23T11:42:54.362Z,2.88
2022-10-23T11:45:38.158Z,3.58
2022-10-23T11:48:06.621Z,3.80
2022-10-23T11:50:46.393Z,2.92
2022-10-23T11:53:27.524Z,2.47
2022-10-23T11:56:20.690Z,3.07
2022-10-23T11:58:51.885Z,2.85
2022-10-23T12:01:28.736Z,3.17
2022-10-23T12:03:59.601Z,2.97
2022-10-23T12:06:29.374Z,1.95
2022-10-23T12:09:00.818Z,3.20
2022-10-23T12:11:41.766Z,2.55
2022-10-23T12:14:27.979Z,2.07
2022-10-23T12:16:55.617Z,3.17
2022-10-23T12:19:23.956Z,2.83
2022-10-23T12:21:52.795Z,2.40
2022-10-23T12:24:26.596Z,3.38
2022-10-23T12:27:12.472Z,2.28
2022-10-23T12:29:52.198Z,3.17
2022-10-23T12:32:32.286Z,3.03
2022-10-23T12:35:18.523Z,1.90
2022-10-23T12:37:56.037Z,2.08
2022-10-23T12:40:29.896Z,2.77
2022-10-23T12:42:58.336Z,2.78
2022-10-23T12:45:27.470Z,2.97
2022-10-23T12:47:55.256Z,3.43
2022-10-23T12:50:23.977Z,2.42
2022-10-23T12:52:52.840Z,2.60
2022-10-23T12:55:20.756Z,2.50
2022-10-23T12:57:48.462Z,2.28
2022-10-23T13:00:17.366Z,2.35
2022-10-23T13:02:45.025Z,2.58
2022-10-23T13:05:13.884Z,2.67
2022-10-23T13:07:45.579Z,2.60
2022-10-23T13:10:19.935Z,2.00
2022-10-23T13:12:55.548Z,2.63
2022-10-23T13:15:23.392Z,3.10
2022-10-23T13:17:56.995Z,1.73
2022-10-23T13:20:26.633Z,2.90
2022-10-23T13:23:01.341Z,2.15
2022-10-23T13:25:32.674Z,2.85
2022-10-23T13:28:26.764Z,2.30
2022-10-23T13:31:00.701Z,2.33
2022-10-23T13:33:32.579Z,2.03
2022-10-23T13:36:01.061Z,2.08
2022-10-23T13:38:38.158Z,2.50
2022-10-23T13:41:06.298Z,2.55
2022-10-23T13:43:34.114Z,2.75
2022-10-23T13:46:02.014Z,2.22
2022-10-23T13:48:29.802Z,2.00
2022-10-23T13:51:02.928Z,1.95
2022-10-23T13:53:30.695Z,2.10
2022-10-23T13:55:58.817Z,1.77
2022-10-23T13:58:26.618Z,1.83
2022-10-23T14:00:54.543Z,2.25
2022-10-23T14:03:24.499Z,1.43
2022-10-23T14:05:52.418Z,1.90
2022-10-23T14:08:20.244Z,2.50
2022-10-23T14:10:47.974Z,2.25
2022-10-23T14:13:15.685Z,2.05
2022-10-23T14:15:43.346Z,2.53
2022-10-23T14:18:10.920Z,2.08
2022-10-23T14:20:39.542Z,1.43
2022-10-23T14:23:07.109Z,2.17
2022-10-23T14:25:34.781Z,1.95
2022-10-23T14:28:02.387Z,1.87
2022-10-23T14:30:30.045Z,2.10
2022-10-23T14:32:57.650Z,1.92
2022-10-23T14:35:25.780Z,2.22
2022-10-23T14:37:53.377Z,2.08
2022-10-23T14:40:21.049Z,2.35
2022-10-23T14:42:48.742Z,1.63
2022-10-23T14:45:16.572Z,1.90
2022-10-23T14:47:44.478Z,2.10
2022-10-23T14:50:12.643Z,1.63
2022-10-23T14:52:40.393Z,2.13
2022-10-23T14:55:08.298Z,2.42
2022-10-23T14:57:35.982Z,2.40
2022-10-23T15:00:03.642Z,2.20
2022-10-23T15:02:31.392Z,2.78
2022-10-23T15:04:59.048Z,1.75
2022-10-23T15:07:26.823Z,2.28
2022-10-23T15:09:55.643Z,2.00
2022-10-23T15:12:24.632Z,2.08
2022-10-23T15:14:52.290Z,2.55
2022-10-23T15:17:19.903Z,1.53
2022-10-23T15:19:47.553Z,1.52
2022-10-23T15:22:15.313Z,2.15
2022-10-23T15:24:43.009Z,2.45
2022-10-23T15:27:10.681Z,2.13
2022-10-23T15:29:38.396Z,2.53
2022-10-23T15:32:07.786Z,2.30
2022-10-23T15:34:36.411Z,1.50
2022-10-23T15:37:04.429Z,1.85
2022-10-23T15:39:35.788Z,2.25
2022-10-23T15:42:04.387Z,1.87
2022-10-23T15:44:32.165Z,2.22
2022-10-23T15:47:00.165Z,1.95
2022-10-23T15:49:29.646Z,1.87
2022-10-23T15:51:57.406Z,1.48
2022-10-23T15:54:28.160Z,1.60
2022-10-23T15:56:58.422Z,2.13
2022-10-23T15:59:26.227Z,1.90
2022-10-23T16:01:54.142Z,1.60
2022-10-23T16:04:22.069Z,1.60
2022-10-23T16:06:49.861Z,1.67
2022-10-23T16:09:17.654Z,1.77
2022-10-23T16:11:45.282Z,1.58
2022-10-23T16:14:14.273Z,2.05
2022-10-23T16:16:41.945Z,1.70
2022-10-23T16:19:10.518Z,1.48
2022-10-23T16:21:38.242Z,1.80
2022-10-23T16:24:06.620Z,1.80
2022-10-23T16:26:34.427Z,1.92
2022-10-23T16:29:03.159Z,1.65
2022-10-23T16:31:30.923Z,1.83
2022-10-23T16:34:01.603Z,1.90
2022-10-23T16:36:29.509Z,1.85
2022-10-23T16:38:57.137Z,2.00
2022-10-23T16:41:24.861Z,1.60
2022-10-23T16:43:52.522Z,1.70
2022-10-23T16:46:23.012Z,1.95
2022-10-23T16:48:53.526Z,1.70
2022-10-23T16:51:22.016Z,1.65
2022-10-23T16:53:49.711Z,2.00
2022-10-23T16:56:17.888Z,1.80
2022-10-23T16:58:45.638Z,2.17
2022-10-23T17:01:17.267Z,1.30
2022-10-23T17:03:47.967Z,2.03
2022-10-23T17:06:16.325Z,2.15
2022-10-23T17:08:44.001Z,2.55
2022-10-23T17:11:13.188Z,1.60
2022-10-23T17:13:43.186Z,1.70
2022-10-23T17:16:11.876Z,1.55
2022-10-23T17:18:42.895Z,1.90
2022-10-23T17:21:12.239Z,1.87
2022-10-23T17:23:39.866Z,1.40
2022-10-23T17:26:09.237Z,1.65
2022-10-23T17:28:43.560Z,1.87
2022-10-23T17:31:24.503Z,1.92
2022-10-23T17:33:53.582Z,1.90
2022-10-23T17:36:22.051Z,1.95
2022-10-23T17:38:49.862Z,1.80
2022-10-23T17:41:17.867Z,1.73
2022-10-23T17:43:45.604Z,1.52
2022-10-23T17:46:13.610Z,1.67
2022-10-23T17:48:44.763Z,1.77
2022-10-23T17:51:13.395Z,1.90
2022-10-23T17:53:41.935Z,1.50
2022-10-23T17:56:11.397Z,1.75
2022-10-23T17:58:39.030Z,1.52
2022-10-23T18:01:07.494Z,1.73
2022-10-23T18:03:35.995Z,1.70
2022-10-23T18:06:29.593Z,1.90
2022-10-23T18:09:00.896Z,1.45
2022-10-23T18:11:29.855Z,1.50
2022-10-23T18:16:25.610Z,1.50
2022-10-23T18:18:53.354Z,1.10
2022-10-23T18:21:22.405Z,1.63
2022-10-23T18:23:50.462Z,1.83
2022-10-23T18:26:25.548Z,1.77
2022-10-23T18:28:56.709Z,1.20
2022-10-23T18:31:26.288Z,1.50
2022-10-23T18:33:57.445Z,1.90
2022-10-23T18:36:26.222Z,1.40
2022-10-23T18:41:26.647Z,1.70
2022-10-23T18:43:57.350Z,1.50
2022-10-23T18:46:24.947Z,1.70
2022-10-23T18:48:52.599Z,1.65
2022-10-23T18:51:21.301Z,1.40
2022-10-23T18:53:49.213Z,1.60
2022-10-23T18:56:21.914Z,1.48
2022-10-23T18:58:53.538Z,1.30
2022-10-23T19:01:21.473Z,1.40
2022-10-23T19:03:49.234Z,1.75
2022-10-23T19:06:17.158Z,1.83
2022-10-23T19:08:45.017Z,1.20
2022-10-23T19:11:14.451Z,1.60
2022-10-23T19:13:44.742Z,1.70
2022-10-23T19:16:21.959Z,1.67
2022-10-23T19:18:54.063Z,2.00
2022-10-23T19:21:26.887Z,1.48
2022-10-23T19:23:57.896Z,1.70
2022-10-23T19:26:25.543Z,1.97
2022-10-23T19:31:26.605Z,1.90
2022-10-23T19:33:54.523Z,1.33
2022-10-23T19:36:23.358Z,1.92
2022-10-23T19:38:51.781Z,1.98
2022-10-23T19:41:20.897Z,1.58
2022-10-23T19:43:48.818Z,1.90
2022-10-23T19:46:19.214Z,2.22
2022-10-23T19:48:46.989Z,1.75
2022-10-23T19:51:15.851Z,1.60
2022-10-23T19:53:44.281Z,2.00
2022-10-23T19:56:12.525Z,1.73
2022-10-23T19:58:40.402Z,1.87
2022-10-23T20:01:09.362Z,1.90
2022-10-23T20:03:37.121Z,2.50
2022-10-23T20:06:04.946Z,2.20
2022-10-23T20:08:35.000Z,1.93
2022-10-23T20:11:02.982Z,1.98
2022-10-23T20:13:30.670Z,1.88
2022-10-23T20:15:58.349Z,2.00
2022-10-23T20:18:26.251Z,1.90
2022-10-23T20:20:54.234Z,1.92
2022-10-23T20:23:22.073Z,1.70
2022-10-23T20:25:49.838Z,1.98
2022-10-23T20:28:17.794Z,1.75
2022-10-23T20:30:46.216Z,1.60
2022-10-23T20:33:13.896Z,1.77
2022-10-23T20:35:42.056Z,2.00
2022-10-23T20:38:09.813Z,1.80
2022-10-23T20:40:37.533Z,1.70
2022-10-23T20:43:05.203Z,1.98
2022-10-23T20:45:32.952Z,1.63
2022-10-23T20:48:00.606Z,1.67
2022-10-23T20:50:28.368Z,1.50
2022-10-23T20:52:55.965Z,2.17
2022-10-23T20:55:23.632Z,1.65
2022-10-23T20:57:51.233Z,1.33
2022-10-23T21:00:18.893Z,2.28
2022-10-23T21:02:48.622Z,1.63
2022-10-23T21:05:19.107Z,2.13
2022-10-23T21:07:46.766Z,2.30
2022-10-23T21:10:14.415Z,1.75
2022-10-23T21:12:42.278Z,1.90
2022-10-23T21:15:10.394Z,2.05
2022-10-23T21:17:40.766Z,2.35
2022-10-23T21:20:08.530Z,2.47
2022-10-23T21:22:36.265Z,2.23
2022-10-23T21:25:03.903Z,2.20
2022-10-23T21:27:31.620Z,2.28
2022-10-23T21:29:59.232Z,2.30
2022-10-23T21:32:26.933Z,2.20
2022-10-23T21:34:55.259Z,2.30
2022-10-23T21:37:25.061Z,2.15
2022-10-23T21:39:52.710Z,2.38
2022-10-23T21:42:20.342Z,2.25
2022-10-23T21:44:48.045Z,2.15
2022-10-23T21:47:15.694Z,2.43
2022-10-23T21:49:43.534Z,1.88
2022-10-23T21:52:12.336Z,2.25
2022-10-23T21:54:40.852Z,1.67
2022-10-23T21:57:13.324Z,2.10
2022-10-23T21:59:41.054Z,2.25
2022-10-23T22:02:09.460Z,2.65
2022-10-23T22:04:38.006Z,2.90
2022-10-23T22:07:05.702Z,2.83
2022-10-23T22:09:33.623Z,2.72
2022-10-23T22:12:01.341Z,2.50
2022-10-23T22:14:28.995Z,2.70
2022-10-23T22:16:56.663Z,2.40
2022-10-23T22:19:24.338Z,2.37
2022-10-23T22:21:52.052Z,2.50
2022-10-23T22:24:19.687Z,2.25
2022-10-23T22:26:48.440Z,2.05
2022-10-23T22:29:17.018Z,2.17
2022-10-23T22:31:48.815Z,1.83
2022-10-23T22:34:48.236Z,1.90
2022-10-23T22:37:15.039Z,1.87
2022-10-23T22:39:42.703Z,2.03
2022-10-23T22:42:10.348Z,1.88
2022-10-23T22:44:38.023Z,3.27
2022-10-23T22:47:06.387Z,1.90
2022-10-23T22:49:34.114Z,2.35
2022-10-23T22:52:01.801Z,1.88
2022-10-23T22:54:31.411Z,2.08
2022-10-23T22:56:59.220Z,1.85
2022-10-23T22:59:26.840Z,1.77
2022-10-23T23:01:54.500Z,1.40
2022-10-23T23:04:38.560Z,2.05
2022-10-23T23:07:10.669Z,1.50
2022-10-23T23:09:39.057Z,1.80
2022-10-23T23:12:07.139Z,1.88
2022-10-23T23:14:34.738Z,1.75
2022-10-23T23:17:02.405Z,1.45
2022-10-23T23:19:30.184Z,1.15
2022-10-23T23:21:58.280Z,1.65
2022-10-23T23:24:26.170Z,1.30
2022-10-23T23:26:53.844Z,1.60
2022-10-23T23:29:21.922Z,1.35
2022-10-23T23:31:49.696Z,1.50
2022-10-23T23:34:17.368Z,1.00
2022-10-23T23:36:45.027Z,1.50
2022-10-23T23:39:12.837Z,1.35
2022-10-23T23:41:40.444Z,1.35
2022-10-23T23:44:08.573Z,0.95
2022-10-23T23:46:36.212Z,1.40
2022-10-23T23:49:03.920Z,0.90
2022-10-23T23:51:31.604Z,1.33
2022-10-23T23:53:59.191Z,1.33
2022-10-23T23:56:28.238Z,0.80
2022-10-23T23:58:55.838Z,0.97
